• Join FlightAware (Why Join?)
  • Login
  • US Flag 
10:09PM EDT


 

Airport Tracker/Info


-or-


 

Live Flight TrackerFlight Track Log ✈ BAW4 ✈ 01-Aug-2013 ✈ KJFK - EGLC / LCY

Flight Track Log - Related Links

Times and Time Zones

All times are in EDT time to prevent confusion due to time zone crossing. See the BAW4 flight status page for this flight to view local times or setup timezone preferences in your user account.

Time Position Orientation Groundspeed Altitude Reporting Facility
EDT Latitude Longitude Course Direction KTS MPH feet Rate Location/Type
10:13PM 40.6510 -73.7740 114° Southeast  Level FlightAware
10:21PM 40.8126 -73.6707 37° Northeast  Level FlightAware Approximate
10:23PM 40.6400 -73.7720 217° Southwest 125 144  Level FlightAware
10:24PM 40.6250 -73.7840 211° Southwest 145 167 800 2,040 Climbing FlightAware
10:24PM 40.6150 -73.7920 211° Southwest 146 168 1,500 1,560 Climbing FlightAware
10:24PM 40.6040 -73.7990 206° Southwest 174 200 1,700 900 Climbing FlightAware
10:24PM 40.6010 -73.8000 194° South 183 211 1,800 1,680 Climbing FlightAware
10:25PM 40.5810 -73.7830 147° Southeast 235 270 2,500 1,860 Climbing FlightAware
10:25PM 40.5770 -73.7730 118° Southeast 242 278 2,800 2,760 Climbing FlightAware
10:25PM 40.5760 -73.7610 96° East 246 283 3,200 2,700 Climbing FlightAware
10:25PM 40.5840 -73.7300 71° East 262 302 4,200 2,220 Climbing FlightAware
10:26PM 40.5910 -73.7210 44° Northeast 271 312 4,400 2,220 Climbing FlightAware
10:26PM 40.6140 -73.6950 41° Northeast 284 327 5,400 2,820 Climbing FlightAware
10:26PM 40.6330 -73.6750 39° Northeast 288 331 6,400 3,000 Climbing FlightAware
10:27PM 40.6570 -73.6500 38° Northeast 295 339 7,400 3,000 Climbing FlightAware
10:27PM 40.6660 -73.6420 34° Northeast 296 341 7,900 3,120 Climbing FlightAware
10:27PM 40.6980 -73.6090 38° Northeast 304 350 9,300 2,700 Climbing FlightAware
10:28PM 40.7350 -73.5720 37° Northeast 315 362 10,600 1,980 Climbing FlightAware
10:28PM 40.7480 -73.5650 22° Northeast 328 377 10,700 1,680 Climbing FlightAware
10:29PM 40.8020 -73.5460 15° North 349 402 11,900 1,800 Climbing FlightAware
10:29PM 40.8610 -73.5260 14° North 374 430 12,900 900 Climbing FlightAware
10:30PM 40.9160 -73.5070 15° North 374 430 13,000 60 Climbing FlightAware
10:30PM 40.9760 -73.4870 14° North 376 433 13,000 240 Level FlightAware
10:31PM 41.0340 -73.4670 15° North 378 435 13,300 900 Climbing FlightAware
10:31PM 41.0950 -73.4470 14° North 381 438 14,100 1,440 Climbing FlightAware
10:32PM 41.1620 -73.4240 14° North 390 449 15,100 1,440 Climbing FlightAware
10:33PM 41.2280 -73.4010 15° North 396 456 16,000 1,680 Climbing FlightAware
10:33PM 41.2920 -73.3790 14° North 406 467 17,200 1,980 Climbing FlightAware
10:34PM 41.3470 -73.3600 15° North 415 478 18,200 2,160 Climbing FlightAware
10:34PM 41.4160 -73.3360 15° North 425 489 19,600 2,160 Climbing FlightAware
10:35PM 41.4920 -73.3100 14° North 433 498 21,000 1,920 Climbing FlightAware
10:36PM 41.5660 -73.2930 10° North 439 505 22,200 1,800 Climbing FlightAware
10:36PM 41.6320 -73.2910 North 448 516 23,100 1,620 Climbing FlightAware
10:37PM 41.7230 -73.2890 North 463 533 24,200 1,500 Climbing FlightAware
10:37PM 41.7890 -73.2870 North 472 543 25,000 1,380 Climbing FlightAware
10:38PM 41.8690 -73.2860 North 485 558 25,800 1,380 Climbing FlightAware
10:39PM 41.9510 -73.2840 North 493 567 26,700 1,440 Climbing FlightAware
10:39PM 42.0260 -73.2820 North 501 577 27,500 1,320 Climbing FlightAware
10:40PM 42.1070 -73.2800 North 511 588 28,200 780 Climbing FlightAware
10:41PM 42.2090 -73.2550 10° North 519 597 28,600 1,500 Climbing FlightAware
10:41PM 42.2480 -73.1960 48° Northeast 519 597 29,900 2,700 Climbing FlightAware
10:41PM 41.4290 -73.3320 187° South 30,800 2,220 Climbing FlightAware
10:42PM 42.3230 -73.0480 13° North 499 574 32,000 1,440 Climbing FlightAware
10:42PM 42.3600 -72.9730 56° Northeast 499 574 32,100 1,380 Climbing FlightAware
10:43PM 42.4110 -72.8660 57° Northeast 505 581 33,600 1,980 Climbing FlightAware
10:44PM 42.4570 -72.7720 56° Northeast 502 578 34,500 1,320 Climbing FlightAware
10:44PM 42.5020 -72.6780 57° Northeast 505 581 35,200 1,140 Climbing FlightAware
10:45PM 42.5470 -72.5850 57° Northeast 507 583 35,900 1,140 Climbing FlightAware
10:45PM 42.5880 -72.4990 57° Northeast 505 581 36,500 1,020 Climbing FlightAware
10:46PM 42.6280 -72.4140 57° Northeast 509 586 37,000 840 Climbing FlightAware
10:47PM 42.6840 -72.2980 57° Northeast 512 589 37,600 780 Climbing FlightAware
10:47PM 42.7220 -72.2170 57° Northeast 516 594 38,000 600 Climbing FlightAware
10:48PM 42.7710 -72.1140 57° Northeast 521 600 38,300 480 Climbing FlightAware
10:48PM 42.8180 -72.0150 57° Northeast 526 605 38,600 540 Climbing FlightAware
10:49PM 42.8640 -71.9160 58° Northeast 525 604 39,000 300 Climbing FlightAware
10:49PM 42.9060 -71.8270 57° Northeast 520 598 39,000  Level FlightAware
10:50PM 42.9500 -71.7310 58° Northeast 521 600 39,000  Level FlightAware
10:51PM 42.9970 -71.6320 57° Northeast 524 603 39,000  Level FlightAware
10:51PM 43.0430 -71.5320 58° Northeast 517 595 39,000  Level FlightAware
10:52PM 43.0880 -71.4330 58° Northeast 513 590 39,000  Level FlightAware
10:52PM 43.1310 -71.3400 58° Northeast 514 592 39,000  Level FlightAware
10:53PM 43.1780 -71.2380 58° Northeast 523 602 39,000  Level FlightAware
10:53PM 43.2190 -71.1500 57° Northeast 526 605 39,000  Level FlightAware
10:54PM 43.2680 -71.0420 58° Northeast 520 598 39,000  Level FlightAware
10:55PM 43.3110 -70.9480 58° Northeast 512 589 39,000  Level FlightAware
10:55PM 43.3520 -70.8560 58° Northeast 507 583 39,000  Level FlightAware
10:56PM 43.3960 -70.7590 58° Northeast 504 580 39,000  Level FlightAware
10:56PM 43.4410 -70.6580 58° Northeast 513 590 39,000  Level FlightAware
10:57PM 43.4810 -70.5700 58° Northeast 521 600 39,000  Level FlightAware
10:58PM 43.5270 -70.4670 58° Northeast 522 601 39,000  Level FlightAware
10:58PM 43.5740 -70.3610 59° Northeast 517 595 39,000  Level FlightAware
10:59PM 43.6140 -70.2710 58° Northeast 512 589 39,000  Level FlightAware
10:59PM 43.6580 -70.1710 59° Northeast 509 586 39,000  Level FlightAware
11:00PM 43.7010 -70.0760 58° Northeast 510 587 39,000  Level FlightAware
11:00PM 43.7440 -69.9770 59° Northeast 510 587 39,000  Level FlightAware
11:01PM 43.7880 -69.8770 59° Northeast 513 590 39,000  Level FlightAware
11:02PM 43.8270 -69.7870 59° Northeast 514 592 39,000 60 Level FlightAware
11:02PM 43.8720 -69.6830 59° Northeast 515 593 39,100 60 Climbing FlightAware
11:03PM 43.9150 -69.5840 59° Northeast 515 593 39,100  Level FlightAware
11:03PM 43.9590 -69.4810 59° Northeast 515 593 39,100  Level FlightAware
11:04PM 44.0090 -69.3650 59° Northeast 515 593 39,100 -120 Level FlightAware
11:05PM 44.0490 -69.2720 59° Northeast 515 593 39,000 -120 Descending FlightAware
11:05PM 44.0930 -69.1690 59° Northeast 513 590 39,000  Level FlightAware
11:06PM 44.1360 -69.0680 59° Northeast 514 592 39,000  Level FlightAware
11:06PM 44.1760 -68.9750 59° Northeast 514 592 39,000  Level FlightAware
11:07PM 44.2180 -68.8740 60° Northeast 515 593 39,000  Level FlightAware
11:08PM 44.2650 -68.7640 59° Northeast 515 593 39,000  Level FlightAware
11:08PM 44.3050 -68.6680 60° Northeast 517 595 39,000  Level FlightAware
11:09PM 44.3470 -68.5670 60° Northeast 517 595 39,000  Level FlightAware
11:09PM 44.3910 -68.4620 60° Northeast 515 593 39,000 60 Level FlightAware
11:10PM 44.4290 -68.3700 60° Northeast 512 589 39,100  Climbing FlightAware
11:11PM 44.4720 -68.2660 60° Northeast 511 588 39,000 -120 Descending FlightAware
11:11PM 44.5150 -68.1620 60° Northeast 512 589 39,000  Level FlightAware
11:12PM 44.5540 -68.0690 59° Northeast 512 589 39,000  Level FlightAware
11:12PM 44.5970 -67.9640 60° Northeast 513 590 39,000  Level FlightAware
11:13PM 44.6380 -67.8610 61° Northeast 505 581 39,000  Level FlightAware
11:13PM 44.6700 -67.7830 60° Northeast 506 582 39,000  Level FlightAware
11:14PM 44.7170 -67.6680 60° Northeast 504 580 39,000  Level FlightAware
11:15PM 44.7590 -67.5640 60° Northeast 507 583 39,000  Level FlightAware
11:15PM 44.8000 -67.4600 61° Northeast 509 586 39,000  Level FlightAware
11:16PM 44.8360 -67.3700 61° Northeast 510 587 39,000  Level FlightAware
11:16PM 44.8760 -67.2720 60° Northeast 511 588 39,000  Level FlightAware
11:17PM 44.9210 -67.1590 61° Northeast 509 586 39,000  Level FlightAware
11:18PM 44.9590 -67.0630 61° Northeast 508 585 39,000  Level FlightAware
11:18PM 44.9930 -66.9760 61° Northeast 506 582 39,000  Level FlightAware
11:19PM 45.0400 -66.8580 61° Northeast 502 578 39,000  Level FlightAware
11:19PM 45.0730 -66.7740 61° Northeast 500 575 39,000  Level FlightAware
11:20PM 45.1120 -66.6730 61° Northeast 498 573 39,000  Level FlightAware
11:20PM 45.1560 -66.5600 61° Northeast 499 574 39,000  Level FlightAware
11:21PM 45.1900 -66.4730 61° Northeast 499 574 39,000  Level FlightAware
11:21PM 45.2180 -66.4000 61° Northeast 499 574 39,000  Level FlightAware
11:22PM 45.2620 -66.2870 61° Northeast 499 574 39,000  Level FlightAware
11:23PM 45.3010 -66.1850 61° Northeast 499 574 39,000  Level FlightAware
11:23PM 45.3390 -66.0860 61° Northeast 494 568 39,000  Level FlightAware
11:24PM 45.3780 -65.9840 61° Northeast 494 568 39,000  Level FlightAware
11:24PM 45.4150 -65.8860 62° Northeast 493 567 39,000  Level FlightAware
11:25PM 45.4540 -65.7840 61° Northeast 495 570 39,000  Level FlightAware
11:26PM 45.4920 -65.6840 62° Northeast 492 566 39,000 60 Level FlightAware
11:26PM 45.5290 -65.5830 62° Northeast 490 564 39,100  Climbing FlightAware
11:27PM 45.5720 -65.4690 62° Northeast 490 564 39,000 -120 Descending FlightAware
11:27PM 45.6000 -65.3950 62° Northeast 488 562 39,000  Level FlightAware
11:28PM 45.6410 -65.2850 62° Northeast 487 560 39,000  Level FlightAware
11:29PM 45.6820 -65.1740 62° Northeast 484 557 39,000  Level FlightAware
11:29PM 45.7150 -65.0860 62° Northeast 483 556 39,000  Level FlightAware
11:30PM 45.7560 -64.9730 62° Northeast 482 555 39,000 60 Level FlightAware
11:30PM 45.7910 -64.8760 63° Northeast 478 550 39,100  Climbing FlightAware
11:31PM 45.8250 -64.7830 62° Northeast 476 548 39,000 -120 Descending FlightAware
11:31PM 45.8570 -64.6970 62° Northeast 475 547 39,000  Level FlightAware
11:32PM 45.9030 -64.5720 62° Northeast 475 547 39,000  Level FlightAware
11:33PM 45.9390 -64.4690 63° Northeast 471 542 39,000  Level FlightAware
11:33PM 45.9750 -64.3710 62° Northeast 470 541 39,000  Level FlightAware
11:34PM 46.0080 -64.2790 63° Northeast 470 541 39,000  Level FlightAware
11:35PM 46.0500 -64.1600 63° Northeast 469 540 39,000  Level FlightAware
11:35PM 46.0980 -64.0270 62° Northeast 470 541 39,000  Level FlightAware
11:36PM 46.1290 -63.9420 62° Northeast 470 541 39,000  Level FlightAware
11:37PM 46.1770 -63.8010 64° Northeast 474 545 39,000  Level FlightAware
11:37PM 46.2110 -63.7030 63° Northeast 475 547 39,000  Level FlightAware
11:38PM 46.2410 -63.6170 63° Northeast 476 548 39,000  Level FlightAware
11:38PM 46.2730 -63.5250 63° Northeast 476 548 39,000  Level FlightAware
11:39PM 46.3140 -63.4080 63° Northeast 477 549 39,000  Level FlightAware
11:40PM 46.3530 -63.2940 64° Northeast 478 550 39,000  Level FlightAware
11:40PM 46.3820 -63.2120 63° Northeast 478 550 39,000  Level FlightAware
11:41PM 46.4120 -63.1240 64° Northeast 478 550 39,000  Level FlightAware
11:41PM 46.4430 -63.0370 63° Northeast 478 550 39,000  Level FlightAware
11:42PM 46.4740 -62.9490 63° Northeast 478 550 39,000  Level FlightAware
11:43PM 46.5050 -62.8620 63° Northeast 478 550 39,000  Level FlightAware
11:43PM 46.5700 -62.6580 65° Northeast 477 549 39,000  Level FlightAware
11:44PM 46.6030 -62.5580 64° Northeast 471 542 39,000  Level FlightAware
11:45PM 46.6330 -62.4680 64° Northeast 471 542 39,000  Level FlightAware
11:45PM 46.6750 -62.3440 64° Northeast 467 537 39,000  Level FlightAware
11:46PM 46.7020 -62.2610 65° Northeast 465 535 39,000  Level FlightAware
11:46PM 46.7390 -62.1500 64° Northeast 463 533 39,000  Level FlightAware
11:47PM 46.7700 -62.0550 64° Northeast 463 533 39,000  Level FlightAware
11:48PM 46.8050 -61.9480 64° Northeast 464 534 39,000  Level FlightAware
11:48PM 46.8340 -61.8590 65° Northeast 465 535 39,000  Level FlightAware
11:49PM 46.8660 -61.7610 64° Northeast 466 536 39,000  Level FlightAware
11:49PM 46.9000 -61.6560 65° Northeast 468 539 39,000  Level FlightAware
11:50PM 46.9450 -61.5170 65° Northeast 471 542 39,000  Level FlightAware
11:51PM 46.9760 -61.4200 65° Northeast 473 544 39,000 60 Level FlightAware
11:51PM 47.0090 -61.3180 65° Northeast 474 545 39,100 60 Climbing FlightAware
11:52PM 47.0410 -61.2160 65° Northeast 474 545 39,100  Level FlightAware
11:52PM 47.0750 -61.1120 64° Northeast 473 544 39,100 -120 Level FlightAware
11:53PM 47.1080 -61.0070 65° Northeast 473 544 39,000 -120 Descending FlightAware
11:54PM 47.1370 -60.9140 65° Northeast 474 545 39,000  Level FlightAware
11:54PM 47.1690 -60.8100 66° East 475 547 39,000  Level FlightAware
11:55PM 47.1970 -60.7210 65° Northeast 476 548 39,000  Level FlightAware
11:55PM 47.2410 -60.5810 65° Northeast 476 548 39,000  Level FlightAware
11:56PM 47.2740 -60.4740 66° East 476 548 39,000  Level FlightAware
11:57PM 47.3020 -60.3810 66° East 477 549 39,000  Level FlightAware
11:57PM 47.3360 -60.2710 65° Northeast 477 549 39,000  Level FlightAware
11:58PM 47.3700 -60.1600 66° East 478 550 39,000  Level FlightAware
11:58PM 47.4000 -60.0640 65° Northeast 476 548 39,000  Level FlightAware
11:59PM 47.4320 -59.9580 66° East 475 547 39,000  Level FlightAware
12:00AM 47.4610 -59.8610 66° East 475 547 39,000  Level FlightAware
12:00AM 47.4890 -59.7680 66° East 475 547 39,000  Level FlightAware
12:01AM 47.5300 -59.6320 66° East 475 547 39,000  Level FlightAware
12:01AM 47.5560 -59.5420 67° East 476 548 39,000  Level FlightAware
12:02AM 47.5850 -59.4450 66° East 476 548 39,000  Level FlightAware
12:03AM 47.6230 -59.3160 66° East 476 548 39,000  Level FlightAware
12:03AM 47.6560 -59.2040 66° East 478 550 39,000  Level FlightAware
12:04AM 47.6840 -59.1080 67° East 479 551 39,000  Level FlightAware
12:04AM 47.7180 -58.9930 66° East 480 552 39,000  Level FlightAware
12:05AM 47.7510 -58.8780 67° East 479 551 39,000  Level FlightAware
12:06AM 47.7800 -58.7800 66° East 479 551 39,000  Level FlightAware
12:06AM 47.8050 -58.6920 67° East 479 551 39,000  Level FlightAware
12:07AM 47.8410 -58.5650 67° East 479 551 39,000  Level FlightAware
12:07AM 47.8730 -58.4540 67° East 479 551 39,000  Level FlightAware
12:08AM 47.8980 -58.3660 67° East 477 549 39,000  Level FlightAware
12:09AM 47.9330 -58.2430 67° East 478 550 39,000  Level FlightAware
12:09AM 47.9670 -58.1210 67° East 479 551 39,000  Level FlightAware
12:10AM 47.9980 -58.0110 67° East 480 552 39,000  Level FlightAware
12:10AM 48.0270 -57.9100 67° East 479 551 39,000  Level FlightAware
12:11AM 48.0610 -57.7870 67° East 481 554 39,000  Level FlightAware
12:12AM 48.0940 -57.6650 68° East 482 555 39,000  Level FlightAware
12:12AM 48.1220 -57.5670 67° East 482 555 39,000  Level FlightAware
12:13AM 48.1560 -57.4510 66° East 484 557 39,000  Level FlightAware
12:13AM 48.1870 -57.3450 66° East 486 559 39,000  Level FlightAware
12:14AM 48.2230 -57.2190 67° East 487 560 39,000  Level FlightAware
12:15AM 48.2530 -57.1130 67° East 489 563 39,000  Level FlightAware
12:15AM 48.2860 -57.0000 66° East 491 565 39,000  Level FlightAware
12:16AM 48.3170 -56.8900 67° East 491 565 39,000  Level FlightAware
12:16AM 48.3480 -56.7820 67° East 490 564 39,000  Level FlightAware
12:17AM 48.3790 -56.6720 67° East 490 564 39,000  Level FlightAware
12:18AM 48.4090 -56.5640 67° East 491 565 39,000  Level FlightAware
12:18AM 48.4400 -56.4520 67° East 492 566 39,000  Level FlightAware
12:19AM 48.4700 -56.3420 68° East 493 567 39,000  Level FlightAware
12:19AM 48.5010 -56.2310 67° East 494 568 39,000  Level FlightAware
12:20AM 48.5310 -56.1220 67° East 495 570 39,000  Level FlightAware
12:21AM 48.5620 -56.0090 67° East 496 571 39,000  Level FlightAware
12:21AM 48.5930 -55.8960 67° East 496 571 39,000  Level FlightAware
12:22AM 48.6230 -55.7820 68° East 496 571 39,000  Level FlightAware
12:22AM 48.6530 -55.6730 67° East 497 572 39,000  Level FlightAware
12:23AM 48.6830 -55.5600 68° East 497 572 39,000  Level FlightAware
12:23AM 48.7140 -55.4460 68° East 498 573 39,000  Level FlightAware
12:24AM 48.7440 -55.3330 68° East 497 572 39,000  Level FlightAware
12:25AM 48.7740 -55.2200 68° East 497 572 39,000  Level FlightAware
12:25AM 48.8020 -55.1110 69° East 498 573 39,000  Level FlightAware
12:26AM 48.8330 -54.9940 68° East 498 573 39,000  Level FlightAware
12:26AM 48.8620 -54.8800 69° East 498 573 39,000  Level FlightAware
12:27AM 48.8910 -54.7690 68° East 498 573 39,000  Level FlightAware
12:28AM 48.9200 -54.6570 68° East 500 575 39,000  Level FlightAware
12:28AM 48.9490 -54.5460 68° East 502 578 39,000  Level FlightAware
12:29AM 48.9800 -54.4250 69° East 510 587 39,000  Level FlightAware
12:29AM 49.0100 -54.3050 69° East 510 587 39,000  Level FlightAware
12:30AM 49.0390 -54.1890 69° East 505 581 39,000  Level FlightAware
12:30AM 49.0680 -54.0740 69° East 505 581 39,000  Level FlightAware
12:31AM 49.0970 -53.9580 69° East 504 580 39,000  Level FlightAware
12:32AM 49.1270 -53.8410 69° East 504 580 39,000  Level FlightAware
12:32AM 49.1550 -53.7270 69° East 503 579 39,000  Level FlightAware
12:33AM 49.1840 -53.6100 69° East 502 578 39,000  Level FlightAware
12:33AM 49.2120 -53.4950 70° East 501 577 39,000 60 Level FlightAware
12:34AM 49.2390 -53.3830 70° East 499 574 39,100 60 Climbing FlightAware
12:35AM 49.2680 -53.2620 70° East 495 570 39,100 -120 Level FlightAware
12:35AM 49.2960 -53.1470 69° East 493 567 39,000 -120 Descending FlightAware
12:36AM 49.3270 -53.0190 70° East 490 564 39,000  Level FlightAware
12:36AM 49.3540 -52.9050 70° East 488 562 39,000  Level FlightAware
12:37AM 49.3850 -52.7760 70° East 487 560 39,000  Level FlightAware
12:38AM 49.4120 -52.6600 70° East 488 562 39,000  Level FlightAware
12:38AM 49.4350 -52.5640 70° East 491 565 39,000  Level FlightAware
12:39AM 49.4610 -52.4530 70° East 497 572 39,000  Level FlightAware
12:39AM 49.4930 -52.3150 70° East 505 581 39,000  Level FlightAware
12:40AM 49.5210 -52.1940 70° East 511 588 39,000 60 Level FlightAware
12:40AM 49.5440 -52.0940 70° East 514 592 39,100 60 Climbing FlightAware
12:41AM 49.5720 -51.9710 71° East 516 594 39,100 -120 Level FlightAware
12:42AM 49.6030 -51.8320 71° East 507 583 39,000 -120 Descending FlightAware
12:42AM 49.6250 -51.7340 71° East 496 571 39,000  Level FlightAware
12:43AM 49.6500 -51.6250 70° East 492 566 39,000  Level FlightAware
12:43AM 49.6810 -51.4850 71° East 493 567 39,000  Level FlightAware
12:44AM 49.7030 -51.3670 74° East 495 570 39,000  Level FlightAware
12:45AM 49.7220 -51.2330 78° East 496 571 39,000  Level FlightAware
12:45AM 49.7390 -51.1160 77° East 497 572 39,000  Level FlightAware
12:46AM 49.7580 -50.9850 77° East 497 572 39,000  Level FlightAware
12:46AM 49.7760 -50.8960 73° East 495 570 39,000  Level FlightAware
12:47AM 49.8060 -50.7560 72° East 495 570 39,000  Level FlightAware
12:48AM 49.8320 -50.6350 72° East 496 571 39,000  Level FlightAware
12:48AM 49.8560 -50.5260 71° East 496 571 39,000  Level FlightAware
12:49AM 49.8790 -50.4230 71° East 496 571 39,000  Level FlightAware
12:49AM 49.9020 -50.3170 71° East 496 571 39,000  Level FlightAware
12:50AM 49.9250 -50.2140 71° East 496 571 39,000  Level FlightAware
12:51AM 49.9480 -50.1110 71° East 496 571 39,000  Level FlightAware
12:51AM 49.9710 -50.0080 71° East 496 571 39,000  Level FlightAware
12:52AM 49.9930 -49.9040 72° East 496 571 39,000  Level FlightAware
12:52AM 50.0160 -49.8010 71° East 496 571 39,000  Level FlightAware
12:53AM 50.0000 -50.0000 77° East 492 566 39,000  Level ETMS Enhanced Traffic Management System
12:53AM 50.0390 -49.6980 71° East 496 571 39,000  Level FlightAware
12:53AM 50.0167 -49.3833 77° East 500 575 39,000  Level Gander Center
12:54AM 50.0620 -49.5940 71° East 496 571 39,000  Level FlightAware
12:54AM 50.0850 -49.4910 71° East 496 571 39,000  Level FlightAware
12:54AM 50.0500 -49.1667 76° East 500 575 39,000  Level Gander Center
12:55AM 50.1080 -49.3870 71° East 496 571 39,000  Level FlightAware
12:55AM 50.1000 -48.9500 70° East 510 587 39,000  Level Gander Center
12:55AM 50.1310 -49.2810 71° East 496 571 39,000  Level FlightAware
12:56AM 50.1540 -49.1770 71° East 496 571 39,000  Level FlightAware
12:56AM 50.1167 -48.7500 83° East 500 575 39,000  Level Gander Center
12:57AM 50.1770 -49.0740 71° East 496 571 39,000  Level FlightAware
12:57AM 50.2000 -48.9700 71° East 496 571 39,000  Level FlightAware
12:57AM 50.1333 -48.5333 83° East 500 575 39,000  Level Gander Center
12:59AM 50.1806 -48.3403 69° East  Level FlightAware Approximate
01:00AM 50.2333 -47.8833 69° East 500 575 39,000  Level Gander Center
01:01AM 50.2333 -47.6833 90° East 500 575 39,000  Level Gander Center
01:03AM 50.2802 -47.4897 69° East  Level FlightAware Approximate
01:06AM 50.4921 -47.0226 69° East  Level FlightAware Approximate
01:10AM 50.5893 -46.1679 69° East  Level FlightAware Approximate
01:11AM 50.6323 -45.9777 70° East  Level FlightAware Approximate
01:12AM 50.6749 -45.7871 70° East  Level FlightAware Approximate
01:13AM 50.7172 -45.5962 71° East  Level FlightAware Approximate
01:14AM 50.7592 -45.4049 71° East  Level FlightAware Approximate
01:15AM 50.8009 -45.2133 71° East  Level FlightAware Approximate
01:16AM 50.8423 -45.0214 71° East  Level FlightAware Approximate
01:17AM 50.8833 -44.8291 71° East  Level FlightAware Approximate
01:18AM 50.9240 -44.6365 71° East  Level FlightAware Approximate
01:19AM 50.9645 -44.4435 72° East  Level FlightAware Approximate
01:20AM 51.0046 -44.2502 72° East  Level FlightAware Approximate
01:21AM 51.0443 -44.0566 72° East  Level FlightAware Approximate
01:22AM 51.0838 -43.8627 72° East  Level FlightAware Approximate
01:23AM 51.1229 -43.6684 72° East  Level FlightAware Approximate
01:24AM 51.1618 -43.4737 72° East  Level FlightAware Approximate
01:25AM 51.2002 -43.2788 72° East  Level FlightAware Approximate
01:26AM 51.2384 -43.0835 73° East  Level FlightAware Approximate
01:27AM 51.2763 -42.8879 73° East  Level FlightAware Approximate
01:28AM 51.3138 -42.6920 73° East  Level FlightAware Approximate
01:29AM 51.3510 -42.4958 73° East  Level FlightAware Approximate
01:30AM 51.3878 -42.2993 73° East  Level FlightAware Approximate
01:31AM 51.4244 -42.1024 73° East  Level FlightAware Approximate
01:32AM 51.4606 -41.9052 74° East  Level FlightAware Approximate
01:33AM 51.4964 -41.7077 74° East  Level FlightAware Approximate
01:34AM 51.5320 -41.5099 74° East  Level FlightAware Approximate
01:35AM 51.5672 -41.3118 74° East  Level FlightAware Approximate
01:36AM 51.6021 -41.1134 74° East  Level FlightAware Approximate
01:37AM 51.6366 -40.9147 74° East  Level FlightAware Approximate
01:38AM 51.6708 -40.7157 74° East  Level FlightAware Approximate
01:39AM 51.7047 -40.5163 75° East  Level FlightAware Approximate
01:40AM 51.7382 -40.3167 75° East  Level FlightAware Approximate
01:41AM 51.7714 -40.1168 75° East  Level FlightAware Approximate
01:41AM 51.0000 -40.0000 86° East 492 566 39,000  Level ETMS Enhanced Traffic Management System
01:42AM 51.8042 -39.9166 75° East  Level FlightAware Approximate
01:43AM 51.8367 -39.7161 75° East  Level FlightAware Approximate
01:44AM 51.8689 -39.5154 75° East  Level FlightAware Approximate
01:45AM 51.9007 -39.3143 76° East  Level FlightAware Approximate
01:46AM 51.9322 -39.1129 76° East  Level FlightAware Approximate
01:47AM 51.0672 -38.0464 88° East 492 566 39,000  Level FlightAware Transoceanic
01:48AM 51.0726 -37.8290 88° East 492 566 39,000  Level FlightAware Transoceanic
01:49AM 51.0777 -37.6116 88° East 492 566 39,000  Level FlightAware Transoceanic
01:50AM 51.0823 -37.3941 88° East 492 566 39,000  Level FlightAware Transoceanic
01:51AM 51.0866 -37.1766 88° East 492 566 39,000  Level FlightAware Transoceanic
01:52AM 51.0904 -36.9591 88° East 492 566 39,000  Level FlightAware Transoceanic
01:53AM 51.0939 -36.7415 89° East 492 566 39,000  Level FlightAware Transoceanic
01:54AM 51.0969 -36.5239 89° East 492 566 39,000  Level FlightAware Transoceanic
01:55AM 51.0995 -36.3062 89° East 492 566 39,000  Level FlightAware Transoceanic
01:56AM 51.1017 -36.0886 89° East 492 566 39,000  Level FlightAware Transoceanic
01:57AM 51.1036 -35.8709 89° East 492 566 39,000  Level FlightAware Transoceanic
01:58AM 51.1050 -35.6532 89° East 492 566 39,000  Level FlightAware Transoceanic
01:59AM 51.1060 -35.4355 90° East 492 566 39,000  Level FlightAware Transoceanic
02:00AM 51.1066 -35.2177 90° East 492 566 39,000  Level FlightAware Transoceanic
02:01AM 51.1068 -35.0000 90° East 492 566 39,000  Level FlightAware Transoceanic
02:02AM 51.1066 -34.7823 90° East 492 566 39,000  Level FlightAware Transoceanic
02:03AM 51.1060 -34.5645 90° East 492 566 39,000  Level FlightAware Transoceanic
02:04AM 51.1050 -34.3468 91° East 492 566 39,000  Level FlightAware Transoceanic
02:05AM 51.1036 -34.1291 91° East 492 566 39,000  Level FlightAware Transoceanic
02:06AM 51.1017 -33.9114 91° East 492 566 39,000  Level FlightAware Transoceanic
02:07AM 51.0995 -33.6938 91° East 492 566 39,000  Level FlightAware Transoceanic
02:08AM 51.0969 -33.4761 91° East 492 566 39,000  Level FlightAware Transoceanic
02:09AM 51.0939 -33.2585 91° East 492 566 39,000  Level FlightAware Transoceanic
02:10AM 51.0904 -33.0409 92° East 492 566 39,000  Level FlightAware Transoceanic
02:11AM 51.0866 -32.8234 92° East 492 566 39,000  Level FlightAware Transoceanic
02:12AM 51.0823 -32.6059 92° East 492 566 39,000  Level FlightAware Transoceanic
02:13AM 51.0777 -32.3884 92° East 492 566 39,000  Level FlightAware Transoceanic
02:14AM 51.0726 -32.1710 92° East 492 566 39,000  Level FlightAware Transoceanic
02:15AM 51.0672 -31.9536 92° East 492 566 39,000  Level FlightAware Transoceanic
02:16AM 51.0613 -31.7362 93° East 492 566 39,000  Level FlightAware Transoceanic
02:17AM 51.0551 -31.5190 93° East 492 566 39,000  Level FlightAware Transoceanic
02:18AM 51.0484 -31.3018 93° East 492 566 39,000  Level FlightAware Transoceanic
02:19AM 51.0414 -31.0846 93° East 492 566 39,000  Level FlightAware Transoceanic
02:20AM 51.0339 -30.8675 93° East 492 566 39,000  Level FlightAware Transoceanic
02:21AM 51.0260 -30.6506 93° East 492 566 39,000  Level FlightAware Transoceanic
02:22AM 51.0177 -30.4336 94° East 492 566 39,000  Level FlightAware Transoceanic
02:23AM 51.0091 -30.2168 94° East 492 566 39,000  Level FlightAware Transoceanic
02:24AM 51.0386 -30.0185 77° East  Level Estimated
02:25AM 51.0677 -29.8201 77° East  Level Estimated
02:26AM 51.0965 -29.6213 77° East  Level Estimated
02:27AM 51.1250 -29.4224 77° East  Level Estimated
02:27AM 51.0000 -30.0000 77° East 472 543 39,000  Level ETMS Enhanced Traffic Management System
02:28AM 51.1531 -29.2231 77° East  Level Estimated
02:29AM 51.1809 -29.0237 77° East  Level Estimated
02:30AM 51.2083 -28.8240 78° East  Level Estimated
02:31AM 51.2355 -28.6241 78° East  Level Estimated
02:32AM 51.2622 -28.4239 78° East  Level Estimated
02:33AM 51.2252 -28.3664 78° East 472 543 39,000  Level FlightAware Transoceanic
02:34AM 51.2518 -28.1611 78° East 472 543 39,000  Level FlightAware Transoceanic
02:35AM 51.2779 -27.9556 79° East 472 543 39,000  Level FlightAware Transoceanic
02:36AM 51.3037 -27.7498 79° East 472 543 39,000  Level FlightAware Transoceanic
02:37AM 51.3292 -27.5438 79° East 472 543 39,000  Level FlightAware Transoceanic
02:38AM 51.3543 -27.3376 79° East 472 543 39,000  Level FlightAware Transoceanic
02:39AM 51.3791 -27.1312 79° East 472 543 39,000  Level FlightAware Transoceanic
02:40AM 51.4034 -26.9245 79° East 472 543 39,000  Level FlightAware Transoceanic
02:41AM 51.4274 -26.7176 80° East 472 543 39,000  Level FlightAware Transoceanic
02:42AM 51.4511 -26.5105 80° East 472 543 39,000  Level FlightAware Transoceanic
02:43AM 51.4744 -26.3032 80° East 472 543 39,000  Level FlightAware Transoceanic
02:44AM 51.4973 -26.0957 80° East 472 543 39,000  Level FlightAware Transoceanic
02:45AM 51.5198 -25.8879 80° East 472 543 39,000  Level FlightAware Transoceanic
02:46AM 51.5420 -25.6800 80° East 472 543 39,000  Level FlightAware Transoceanic
02:47AM 51.5638 -25.4719 81° East 472 543 39,000  Level FlightAware Transoceanic
02:48AM 51.5853 -25.2635 81° East 472 543 39,000  Level FlightAware Transoceanic
02:49AM 51.6064 -25.0550 81° East 472 543 39,000  Level FlightAware Transoceanic
02:50AM 51.6271 -24.8463 81° East 472 543 39,000  Level FlightAware Transoceanic
02:51AM 51.6474 -24.6374 81° East 472 543 39,000  Level FlightAware Transoceanic
02:52AM 51.6674 -24.4283 81° East 472 543 39,000  Level FlightAware Transoceanic
02:53AM 51.6870 -24.2190 81° East 472 543 39,000  Level FlightAware Transoceanic
02:54AM 51.7062 -24.0095 82° East 472 543 39,000  Level FlightAware Transoceanic
02:55AM 51.7250 -23.7999 82° East 472 543 39,000  Level FlightAware Transoceanic
02:56AM 51.7435 -23.5901 82° East 472 543 39,000  Level FlightAware Transoceanic
02:57AM 51.7616 -23.3801 82° East 472 543 39,000  Level FlightAware Transoceanic
02:58AM 51.7794 -23.1700 82° East 472 543 39,000  Level FlightAware Transoceanic
02:59AM 51.7967 -22.9596 82° East 472 543 39,000  Level FlightAware Transoceanic
03:00AM 51.8137 -22.7492 83° East 472 543 39,000  Level FlightAware Transoceanic
03:01AM 51.8303 -22.5385 83° East 472 543 39,000  Level FlightAware Transoceanic
03:02AM 51.8465 -22.3278 83° East 472 543 39,000  Level FlightAware Transoceanic
03:03AM 51.8624 -22.1168 83° East 472 543 39,000  Level FlightAware Transoceanic
03:04AM 51.8778 -21.9058 83° East 472 543 39,000  Level FlightAware Transoceanic
03:05AM 51.8929 -21.6945 83° East 472 543 39,000  Level FlightAware Transoceanic
03:06AM 51.9076 -21.4832 84° East 472 543 39,000  Level FlightAware Transoceanic
03:07AM 51.9220 -21.2717 84° East 472 543 39,000  Level FlightAware Transoceanic
03:08AM 51.9359 -21.0600 84° East 472 543 39,000  Level FlightAware Transoceanic
03:09AM 51.9495 -20.8483 84° East 472 543 39,000  Level FlightAware Transoceanic
03:10AM 51.9627 -20.6364 84° East 472 543 39,000  Level FlightAware Transoceanic
03:11AM 51.9755 -20.4244 84° East 472 543 39,000  Level FlightAware Transoceanic
03:12AM 51.9879 -20.2122 85° East 472 543 39,000  Level FlightAware Transoceanic
03:13AM 52.0007 -20.0052 84° East  Level Estimated
03:14AM 52.0132 -19.7981 84° East  Level Estimated
03:15AM 52.0252 -19.5908 85° East  Level Estimated
03:16AM 52.0369 -19.3834 85° East  Level Estimated
03:17AM 52.0483 -19.1759 85° East  Level Estimated
03:18AM 52.0592 -18.9683 85° East  Level Estimated
03:19AM 52.0698 -18.7607 85° East  Level Estimated
03:20AM 52.0801 -18.5529 85° East  Level Estimated
03:21AM 52.0899 -18.3450 85° East  Level Estimated
03:22AM 52.0994 -18.1370 86° East  Level Estimated
03:23AM 52.1086 -17.9289 86° East  Level Estimated
03:24AM 52.1174 -17.7208 86° East  Level Estimated
03:25AM 52.1258 -17.5126 86° East  Level Estimated
03:26AM 52.1338 -17.3043 86° East  Level Estimated
03:27AM 52.1415 -17.0959 86° East  Level Estimated
03:28AM 52.1488 -16.8875 87° East  Level Estimated
03:29AM 52.1557 -16.6790 87° East  Level Estimated
03:30AM 52.1623 -16.4704 87° East  Level Estimated
03:31AM 52.1685 -16.2618 87° East  Level Estimated
03:32AM 52.1744 -16.0531 87° East  Level Estimated
03:33AM 52.1798 -15.8443 87° East  Level Estimated
03:34AM 52.1849 -15.6355 88° East  Level Estimated
03:35AM 52.1897 -15.4267 88° East  Level Estimated
03:36AM 52.1940 -15.2178 88° East  Level Estimated
03:37AM 52.1980 -15.0089 88° East  Level Estimated
03:38AM 52.2016 -14.8000 88° East  Level Estimated
03:39AM 52.2049 -14.5910 88° East  Level Estimated
03:40AM 52.2078 -14.3820 89° East  Level Estimated
03:41AM 52.2103 -14.1729 89° East  Level Estimated
03:42AM 52.2124 -13.9639 89° East  Level Estimated
03:43AM 52.2142 -13.7548 89° East  Level Estimated
03:44AM 52.2156 -13.5457 89° East  Level Estimated
03:45AM 52.2167 -13.3366 89° East  Level Estimated
03:46AM 52.2173 -13.1274 90° East  Level Estimated
03:46AM 52.0300 -13.0580 90° East 473 544 39,000  Level FlightAware
03:46AM 52.0330 -12.9400 88° East 472 543 39,000 60 Level FlightAware
03:47AM 52.0380 -12.8070 86° East 472 543 39,100 60 Climbing FlightAware
03:47AM 52.0410 -12.6980 87° East 472 543 39,100 -120 Level FlightAware
03:48AM 52.0450 -12.5200 88° East 470 541 39,000 -120 Descending FlightAware
03:49AM 52.0480 -12.3950 88° East 470 541 39,000  Level FlightAware
03:50AM 52.0530 -12.2010 88° East 471 542 39,000  Level FlightAware
03:50AM 52.0560 -12.0470 88° East 473 544 39,000  Level FlightAware
03:51AM 52.0590 -11.8940 88° East 473 544 39,000  Level FlightAware
03:52AM 52.0610 -11.7680 88° East 473 544 39,000  Level FlightAware
03:52AM 52.0630 -11.6660 88° East 472 543 39,000  Level FlightAware
03:53AM 52.0650 -11.5380 88° East 472 543 39,000  Level FlightAware
03:53AM 52.0670 -11.4160 88° East 471 542 39,000  Level FlightAware
03:54AM 52.0690 -11.2620 89° East 471 542 39,000  Level FlightAware
03:55AM 52.0710 -11.1450 88° East 472 543 39,000  Level FlightAware
03:55AM 52.0730 -11.0080 89° East 472 543 39,000  Level FlightAware
03:56AM 52.0740 -10.8990 89° East 472 543 39,000  Level FlightAware
03:57AM 52.0760 -10.7290 89° East 473 544 39,000  Level FlightAware
03:57AM 52.0770 -10.5870 89° East 472 543 39,000  Level FlightAware
03:58AM 52.0780 -10.4250 89° East 471 542 39,000  Level FlightAware
03:58AM 52.0790 -10.3180 89° East 471 542 39,000  Level FlightAware
03:59AM 52.0800 -10.1680 89° East 471 542 39,000  Level FlightAware
04:00AM 52.0810 -10.0420 89° East 471 542 39,000  Level FlightAware
04:01AM 52.0810 -9.8990 90° East 472 543 39,000  Level FlightAware
04:01AM 52.0810 -9.7840 90° East 473 544 39,000  Level FlightAware
04:02AM 52.0820 -9.6400 89° East 474 545 39,000  Level FlightAware
04:02AM 52.0820 -9.5160 90° East 473 544 39,000  Level FlightAware
04:03AM 52.0820 -9.3960 90° East 472 543 39,000  Level FlightAware
04:03AM 52.0810 -9.2690 91° East 473 544 39,000  Level FlightAware
04:04AM 52.0810 -9.1400 90° East 475 547 39,000  Level FlightAware
04:05AM 52.0800 -9.0140 91° East 475 547 39,000  Level FlightAware
04:05AM 52.0795 -8.8682 91° East 464 534 39,000  Level FlightAware UK
04:05AM 52.0800 -8.8750 91° East 475 547 39,000  Level FlightAware
04:06AM 52.0780 -8.7220 91° East 473 544 39,000  Level FlightAware
04:07AM 52.0770 -8.5850 91° East 473 544 39,000  Level FlightAware
04:07AM 52.0760 -8.4610 91° East 473 544 39,000  Level FlightAware
04:07AM 52.0761 -8.4425 91° East 466 536 39,000  Level FlightAware UK
04:08AM 52.0751 -8.3363 91° East 462 532 39,000  Level FlightAware UK
04:08AM 52.0750 -8.3430 91° East 473 544 39,000  Level FlightAware
04:08AM 52.0740 -8.2000 91° East 472 543 39,000  Level FlightAware
04:09AM 52.0730 -8.1160 91° East 471 542 39,000  Level FlightAware
04:10AM 52.0710 -7.9730 91° East 469 540 39,000 -300 Level FlightAware
04:10AM 52.0690 -7.8580 92° East 469 540 38,700 -780 Descending FlightAware
04:11AM 52.0680 -7.7380 92° East 471 542 38,200 -1,080 Descending FlightAware
04:11AM 52.0670 -7.7011 92° East 464 534 38,000 -1,260 Descending FlightAware UK
04:11AM 52.0652 -7.5956 92° East 460 529 37,500 -960 Descending FlightAware UK
04:11AM 52.0650 -7.5560 92° East 473 544 37,300 -960 Descending FlightAware
04:12AM 52.0630 -7.4420 92° East 478 550 36,800 -1,020 Descending FlightAware
04:13AM 52.0600 -7.3110 92° East 477 549 36,200 -1,020 Descending FlightAware
04:13AM 52.0580 -7.1970 92° East 477 549 35,700 -1,080 Descending FlightAware
04:14AM 52.0553 -7.0599 92° East 464 534 35,000 -1,020 Descending FlightAware UK
04:14AM 52.0550 -7.0680 92° East 477 549 35,100 -1,020 Climbing FlightAware
04:14AM 52.0529 -6.9528 92° East 464 534 34,500 -1,020 Descending FlightAware UK
04:14AM 52.0520 -6.9400 92° East 475 547 34,500 -900 Level FlightAware
04:15AM 52.0490 -6.8080 92° East 470 541 33,900 -1,020 Descending FlightAware
04:16AM 52.0460 -6.6810 92° East 472 543 33,300 -840 Descending FlightAware
04:16AM 52.0440 -6.5740 92° East 467 537 33,000 -300 Descending FlightAware
04:17AM 52.0400 -6.4420 93° East 468 539 33,000  Level FlightAware
04:17AM 52.0380 -6.3320 92° East 469 540 33,000  Level FlightAware
04:18AM 52.0337 -6.1936 92° East 464 534 33,000  Level FlightAware UK
04:18AM 52.0340 -6.1980 92° East 466 536 33,000  Level FlightAware
04:18AM 52.0300 -6.0740 93° East 463 533 33,000  Level FlightAware
04:19AM 52.0260 -5.9470 93° East 463 533 33,000  Level FlightAware
04:20AM 52.0230 -5.8520 93° East 463 533 33,000 -240 Level FlightAware
04:20AM 52.0227 -5.8392 93° East 458 527 32,900 -240 Descending FlightAware UK
04:20AM 52.0194 -5.7356 93° East 458 527 32,900 120 Level FlightAware UK
04:20AM 52.0180 -5.6850 93° East 464 534 33,000 60 Climbing FlightAware
04:21AM 52.0140 -5.5590 93° East 467 537 33,000  Level FlightAware
04:22AM 52.0100 -5.4390 93° East 469 540 33,000  Level FlightAware
04:22AM 52.0053 -5.3165 93° East 462 532 33,000 120 Level FlightAware UK
04:22AM 52.0050 -5.3080 93° East 470 541 33,100  Climbing FlightAware
04:23AM 52.0010 -5.2060 94° East 470 541 33,000 -120 Descending FlightAware
04:23AM 51.9956 -5.0629 94° East 466 536 33,000 120 Level FlightAware UK
04:23AM 51.9950 -5.0670 94° East 464 534 33,100  Climbing FlightAware
04:24AM 51.9830 -4.9430 99° East 452 520 33,000 -120 Descending FlightAware
04:24AM 51.9710 -4.8360 100° East 450 518 33,000  Level FlightAware
04:25AM 51.9570 -4.7170 101° East 452 520 33,000  Level FlightAware
04:26AM 51.9410 -4.6030 103° East 443 510 33,000  Level FlightAware
04:26AM 51.9210 -4.4980 107° East 441 507 33,000  Level FlightAware
04:27AM 51.8980 -4.3750 107° East 442 509 33,000  Level FlightAware
04:27AM 51.8780 -4.2620 106° East 442 509 33,000 -480 Level FlightAware
04:28AM 51.8600 -4.1600 106° East 441 507 32,500 -2,700 Descending FlightAware
04:29AM 51.8390 -4.0460 106° East 441 507 30,000 -4,380 Descending FlightAware
04:29AM 51.8373 -4.0356 106° East 460 529 29,800 -3,540 Descending FlightAware UK
04:29AM 51.8180 -3.9400 106° East 437 503 27,900 -3,720 Descending FlightAware
04:29AM 51.8150 -3.9233 106° East 456 525 27,600 -1,800 Descending FlightAware UK
04:30AM 51.7989 -3.8298 106° East 450 518 27,000 -1,080 Descending FlightAware UK
04:30AM 51.7980 -3.8260 106° East 445 512 27,000  Level FlightAware
04:30AM 51.7879 -3.7146 98° East 445 512 27,000  Level FlightAware ADS-B
04:31AM 51.7770 -3.5990 99° East 444 511 27,000  Level FlightAware
04:32AM 51.7650 -3.4780 99° East 445 512 27,000  Level FlightAware
04:32AM 51.7550 -3.3690 99° East 446 513 27,000  Level FlightAware
04:32AM 51.7535 -3.3572 99° East 448 516 27,000  Level FlightAware UK
04:33AM 51.7430 -3.2520 99° East 441 507 27,000  Level FlightAware
04:33AM 51.7313 -3.1412 99° East 450 518 27,000  Level FlightAware UK
04:33AM 51.7310 -3.1350 99° East 437 503 27,000  Level FlightAware
04:34AM 51.7220 -3.0521 100° East 437 503 27,000  Level FlightAware ADS-B
04:34AM 51.7104 -2.9423 100° East 439 505 27,000  Level FlightAware ADS-B
04:35AM 51.6995 -2.8433 100° East 443 510 27,000 -240 Level FlightAware ADS-B
04:35AM 51.6885 -2.7452 100° East 444 511 26,800 -600 Descending FlightAware ADS-B
04:35AM 51.6856 -2.7118 98° East 448 516 26,600 -1,020 Descending FlightAware ADS-B
04:36AM 51.6837 -2.6055 92° East 458 527 26,100 -1,020 Descending FlightAware ADS-B
04:36AM 51.6829 -2.5037 91° East 445 512 25,600 -1,020 Descending FlightAware ADS-B
04:37AM 51.6814 -2.4023 91° East 443 510 25,100 -1,320 Descending FlightAware ADS-B
04:37AM 51.6801 -2.3031 91° East 439 505 24,300 -1,980 Descending FlightAware ADS-B
04:38AM 51.6787 -2.2039 91° East 437 503 23,100 -2,220 Descending FlightAware ADS-B
04:38AM 51.6769 -2.1064 92° East 438 504 22,100 -1,620 Descending FlightAware ADS-B
04:39AM 51.6747 -2.0071 92° East 431 496 21,500 -1,020 Descending FlightAware ADS-B
04:40AM 51.6723 -1.9066 92° East 426 490 21,100 -780 Descending FlightAware ADS-B
04:40AM 51.6705 -1.8307 92° East 419 482 20,800 -1,200 Descending FlightAware ADS-B
04:40AM 51.6695 -1.8123 95° East 414 476 20,500 -3,780 Descending FlightAware ADS-B
04:40AM 51.6666 -1.7834 99° East 410 472 19,800 -4,980 Descending FlightAware ADS-B
04:40AM 51.6631 -1.7616 105° East 411 473 19,100 -3,840 Descending FlightAware ADS-B
04:41AM 51.6460 -1.6734 107° East 405 466 17,400 -2,760 Descending FlightAware ADS-B
04:41AM 51.6290 -1.5851 107° East 381 438 16,300 -2,100 Descending FlightAware ADS-B
04:42AM 51.6226 -1.5504 107° East 373 429 15,900 -2,220 Descending FlightAware ADS-B
04:42AM 51.6205 -1.5357 103° East 379 436 15,600 -3,000 Descending FlightAware ADS-B
04:42AM 51.6197 -1.5250 97° East 384 442 15,400 -2,760 Descending FlightAware ADS-B
04:42AM 51.6197 -1.5037 90° East 393 452 15,100 -2,040 Descending FlightAware ADS-B
04:42AM 51.6208 -1.4903 82° East 397 457 15,000 -2,040 Descending FlightAware ADS-B
04:42AM 51.6226 -1.4780 77° East 403 464 14,800 -2,580 Descending FlightAware ADS-B
04:42AM 51.6245 -1.4683 73° East 409 471 14,700 -1,500 Descending FlightAware ADS-B
04:42AM 51.6282 -1.4542 67° East 415 478 14,600 -1,500 Descending FlightAware ADS-B
04:42AM 51.6351 -1.4348 60° Northeast 420 483 14,400 -1,440 Descending FlightAware ADS-B
04:42AM 51.6417 -1.4208 53° Northeast 424 488 14,300 -1,380 Descending FlightAware ADS-B
04:42AM 51.6462 -1.4129 47° Northeast 426 490 14,200 -900 Descending FlightAware ADS-B
04:43AM 51.6929 -1.3514 39° Northeast 424 488 13,800 -2,280 Descending FlightAware ADS-B
04:43AM 51.7397 -1.2912 39° Northeast 432 497 11,900 -3,480 Descending FlightAware ADS-B
04:44AM 51.7854 -1.2293 40° Northeast 424 488 10,300 -3,180 Descending FlightAware ADS-B
04:44AM 51.8083 -1.1976 41° Northeast 425 489 9,500 -2,340 Descending FlightAware ADS-B
04:44AM 51.8323 -1.1641 41° Northeast 423 487 9,100 -960 Descending FlightAware ADS-B
04:45AM 51.8567 -1.1305 40° Northeast 415 478 9,000 -600 Descending FlightAware ADS-B
04:45AM 51.8788 -1.1002 40° Northeast 393 452 8,800 -1,020 Descending FlightAware ADS-B
04:45AM 51.8997 -1.0716 40° Northeast 380 437 8,500 -1,200 Descending FlightAware ADS-B
04:45AM 51.9198 -1.0439 40° Northeast 365 420 8,200 -1,020 Descending FlightAware ADS-B
04:46AM 51.9306 -1.0287 41° Northeast 358 412 8,100 -900 Descending FlightAware ADS-B
04:46AM 51.9362 -1.0191 46° Northeast 350 403 8,000 -780 Descending FlightAware ADS-B
04:46AM 51.9396 -1.0123 51° Northeast 343 395 8,000  Level FlightAware ADS-B
04:46AM 51.9441 -1.0003 59° Northeast 334 384 8,000  Level FlightAware ADS-B
04:46AM 51.9469 -0.9904 65° Northeast 323 372 8,000  Level FlightAware ADS-B
04:46AM 51.9486 -0.9819 72° East 318 366 8,000  Level FlightAware ADS-B
04:46AM 51.9498 -0.9732 77° East 312 359 8,000  Level FlightAware ADS-B
04:46AM 51.9505 -0.9618 84° East 304 350 8,000  Level FlightAware ADS-B
04:46AM 51.9503 -0.9483 91° East 300 345 8,000  Level FlightAware ADS-B
04:46AM 51.9486 -0.9147 95° East 296 341 8,000  Level FlightAware ADS-B
04:47AM 51.9464 -0.8791 96° East 296 341 8,000  Level FlightAware ADS-B
04:47AM 51.9442 -0.8440 96° East 295 339 8,000  Level FlightAware ADS-B
04:47AM 51.9422 -0.8110 96° East 294 338 8,000  Level FlightAware ADS-B
04:48AM 51.9402 -0.7769 95° East 294 338 8,000  Level FlightAware ADS-B
04:48AM 51.9382 -0.7433 96° East 292 336 8,000  Level FlightAware ADS-B
04:48AM 51.9362 -0.7097 95° East 293 337 8,000  Level FlightAware ADS-B
04:48AM 51.9342 -0.6760 95° East 295 339 8,000  Level FlightAware ADS-B
04:49AM 51.9319 -0.6377 96° East 298 343 8,000  Level FlightAware ADS-B
04:49AM 51.9296 -0.6018 96° East 298 343 8,000  Level FlightAware ADS-B
04:49AM 51.9277 -0.5679 95° East 295 339 8,000  Level FlightAware ADS-B
04:49AM 51.9257 -0.5336 95° East 295 339 8,000  Level FlightAware ADS-B
04:50AM 51.9237 -0.5000 95° East 294 338 8,000  Level FlightAware ADS-B
04:50AM 51.9215 -0.4662 96° East 294 338 8,000  Level FlightAware ADS-B
04:50AM 51.9194 -0.4330 96° East 294 338 8,000  Level FlightAware ADS-B
04:50AM 51.9185 -0.4190 96° East 294 338 8,000  Level FlightAware ADS-B
04:50AM 51.9166 -0.4023 100° East 292 336 8,000  Level FlightAware ADS-B
04:51AM 51.9120 -0.3728 104° East 290 334 8,000  Level FlightAware ADS-B
04:51AM 51.9064 -0.3413 106° East 290 334 8,000  Level FlightAware ADS-B
04:51AM 51.9001 -0.3057 106° East 291 335 8,000 -960 Level FlightAware ADS-B
04:51AM 51.8939 -0.2712 106° East 289 333 7,500 -1,500 Descending FlightAware ADS-B
04:52AM 51.8882 -0.2391 106° East 286 329 7,200 -1,320 Descending FlightAware ADS-B
04:52AM 51.8827 -0.2068 105° East 282 325 6,800 -1,500 Descending FlightAware ADS-B
04:52AM 51.8778 -0.1794 106° East 279 321 6,500 -1,260 Descending FlightAware ADS-B
04:52AM 51.8722 -0.1491 107° East 279 321 6,200 -720 Descending FlightAware ADS-B
04:53AM 51.8647 -0.1128 108° East 277 319 6,100 -300 Descending FlightAware ADS-B
04:53AM 51.8628 -0.1067 117° Southeast 274 315 6,100  Level FlightAware ADS-B
04:53AM 51.8605 -0.1012 124° Southeast 272 313 6,100  Level FlightAware ADS-B
04:53AM 51.8578 -0.0958 129° Southeast 270 311 6,100  Level FlightAware ADS-B
04:53AM 51.8536 -0.0889 135° Southeast 267 307 6,100  Level FlightAware ADS-B
04:53AM 51.8498 -0.0840 141° Southeast 264 304 6,100 300 Level FlightAware ADS-B
04:53AM 51.8342 -0.0652 143° Southeast 263 303 6,200 -240 Climbing FlightAware ADS-B
04:54AM 51.8183 -0.0462 144° Southeast 259 298 6,000 -1,200 Descending FlightAware ADS-B
04:54AM 51.8038 -0.0293 144° Southeast 259 298 5,600 -1,380 Descending FlightAware ADS-B
04:54AM 51.7886 -0.0117 144° Southeast 259 298 5,300 -720 Descending FlightAware ADS-B
04:54AM 51.7710 0.0087 144° Southeast 257 296 5,200 -360 Descending FlightAware ADS-B
04:55AM 51.7564 0.0256 144° Southeast 250 288 5,100 -1,140 Descending FlightAware ADS-B
04:55AM 51.7400 0.0443 145° Southeast 249 287 4,600 -1,200 Descending FlightAware ADS-B
04:55AM 51.7142 0.0740 144° Southeast 238 274 4,200 -600 Descending FlightAware ADS-B
04:56AM 51.7001 0.0903 144° Southeast 241 277 4,200  Level FlightAware ADS-B
04:56AM 51.6620 0.1340 145° Southeast 235 270 4,200  Level FlightAware
04:57AM 51.6447 0.1539 144° Southeast 238 274 4,200  Level FlightAware ADS-B
04:57AM 51.6060 0.2030 142° Southeast 223 257 4,200  Level FlightAware
04:58AM 51.5900 0.2240 141° Southeast 219 252 4,200 -180 Level FlightAware
04:58AM 51.5740 0.2450 141° Southeast 221 254 4,100 -180 Descending FlightAware
04:59AM 51.5570 0.2680 140° Southeast 223 257 4,100 -180 Level FlightAware
04:59AM 51.5400 0.2910 140° Southeast 219 252 4,000 -600 Descending FlightAware
04:59AM 51.5250 0.3090 143° Southeast 206 237 3,700 -1,080 Descending FlightAware
05:00AM 51.5100 0.3110 175° South 187 215 3,400 -600 Descending FlightAware
05:00AM 51.5080 0.3100 197° South 180 207 3,400 -420 Level FlightAware
05:00AM 51.4990 0.2720 249° West 178 205 3,200 -360 Descending FlightAware
05:01AM 51.4990 0.2290 270° West 162 186 3,100 -120 Descending FlightAware
05:01AM 51.5000 0.2070 274° West 138 159 3,100 -480 Level FlightAware
05:01AM 51.5010 0.1860 274° West 117 135 2,800 -840 Descending FlightAware
05:02AM 51.5010 0.1760 270° West 116 133 2,600 -1,080 Descending FlightAware
05:02AM 51.5020 0.1560 275° West 120 138 2,200 -1,140 Descending FlightAware
05:02AM 51.5030 0.1380 275° West 116 133 1,800 -1,200 Descending FlightAware
05:03AM 51.5030 0.1150 270° West 120 138 1,300 -1,200 Descending FlightAware
05:03AM 51.5040 0.0930 274° West 119 137 800 -600 Descending FlightAware
05:04AM 51.5050 0.0740 275° West 119 137 800  Level FlightAware
05:06AM 51.5040 0.0930 95° East 118 136 800  Level FlightAware
05:06AM 51.5050 0.0730 275° West 118 136 800  Level FlightAware